createdAt,value
2018-11-13T00:01:37.902Z,12.30
2018-11-13T00:04:07.243Z,12.30
2018-11-13T00:06:35.532Z,12.30
2018-11-13T00:09:04.942Z,12.30
2018-11-13T00:11:33.398Z,12.30
2018-11-13T00:14:01.703Z,12.30
2018-11-13T00:16:30.001Z,12.30
2018-11-13T00:18:58.308Z,12.40
2018-11-13T00:21:26.603Z,12.40
2018-11-13T00:23:54.900Z,12.40
2018-11-13T00:26:23.844Z,12.50
2018-11-13T00:28:52.160Z,12.50
2018-11-13T00:31:20.462Z,12.50
2018-11-13T00:33:48.764Z,12.50
2018-11-13T00:36:17.064Z,12.50
2018-11-13T00:38:45.377Z,12.40
2018-11-13T00:41:13.689Z,12.40
2018-11-13T00:43:41.982Z,12.40
2018-11-13T00:46:10.271Z,12.40
2018-11-13T00:48:38.582Z,12.40
2018-11-13T00:51:06.860Z,12.40
2018-11-13T00:53:36.120Z,12.30
2018-11-13T00:56:04.423Z,12.30
2018-11-13T00:58:32.713Z,12.30
2018-11-13T01:01:00.990Z,12.30
2018-11-13T01:03:29.312Z,12.30
2018-11-13T01:05:57.607Z,12.20
2018-11-13T01:08:25.904Z,12.20
2018-11-13T01:10:54.210Z,12.20
2018-11-13T01:13:22.519Z,12.30
2018-11-13T01:15:50.816Z,12.20
2018-11-13T01:18:19.134Z,12.20
2018-11-13T01:20:47.454Z,12.20
2018-11-13T01:23:15.736Z,12.20
2018-11-13T01:25:44.032Z,12.20
2018-11-13T01:28:12.418Z,12.20
2018-11-13T01:30:40.701Z,12.20
2018-11-13T01:33:08.986Z,12.20
2018-11-13T01:35:37.292Z,12.20
2018-11-13T01:38:05.894Z,12.10
2018-11-13T01:40:34.198Z,12.10
2018-11-13T01:43:02.498Z,12.10
2018-11-13T01:45:30.827Z,12.00
2018-11-13T01:47:59.169Z,12.00
2018-11-13T01:50:27.396Z,12.00
2018-11-13T01:52:55.712Z,12.00
2018-11-13T01:55:24.005Z,11.90
2018-11-13T01:57:52.319Z,11.90
2018-11-13T02:00:22.048Z,12.00
2018-11-13T02:02:51.574Z,12.00
2018-11-13T02:05:21.172Z,12.00
2018-11-13T02:07:49.884Z,11.90
2018-11-13T02:10:18.645Z,11.90
2018-11-13T02:12:47.464Z,11.90
2018-11-13T02:15:16.034Z,11.90
2018-11-13T02:17:44.320Z,11.90
2018-11-13T02:20:14.498Z,11.90
2018-11-13T02:22:43.238Z,11.90
2018-11-13T02:25:13.357Z,12.00
2018-11-13T02:27:42.144Z,12.00
2018-11-13T02:30:13.120Z,11.90
2018-11-13T02:32:42.190Z,11.90
2018-11-13T02:35:11.299Z,11.90
2018-11-13T02:37:39.585Z,11.90
2018-11-13T02:40:07.920Z,11.90
2018-11-13T02:42:37.390Z,11.90
2018-11-13T02:45:15.173Z,11.90
2018-11-13T02:47:43.507Z,11.90
2018-11-13T02:50:14.094Z,11.90
2018-11-13T02:52:42.400Z,11.80
2018-11-13T02:55:11.371Z,11.80
2018-11-13T02:57:39.786Z,11.80
2018-11-13T03:00:11.774Z,11.80
2018-11-13T03:02:40.049Z,11.70
2018-11-13T03:05:10.150Z,11.70
2018-11-13T03:07:38.826Z,11.70
2018-11-13T03:10:08.762Z,11.60
2018-11-13T03:12:37.046Z,11.70
2018-11-13T03:15:06.436Z,11.60
2018-11-13T03:17:34.840Z,11.70
2018-11-13T03:20:03.260Z,11.60
2018-11-13T03:22:31.571Z,11.60
2018-11-13T03:27:34.531Z,11.50
2018-11-13T03:30:03.765Z,11.50
2018-11-13T03:32:32.058Z,11.50
2018-11-13T03:35:00.330Z,11.50
2018-11-13T03:37:28.606Z,11.50
2018-11-13T03:39:56.900Z,11.40
2018-11-13T03:42:25.608Z,11.40
2018-11-13T03:44:53.900Z,11.30
2018-11-13T03:47:22.194Z,11.40
2018-11-13T03:49:50.641Z,11.30
2018-11-13T03:52:18.916Z,11.30
2018-11-13T03:54:47.198Z,11.30
2018-11-13T03:57:15.564Z,11.30
2018-11-13T03:59:43.948Z,11.20
2018-11-13T04:02:12.233Z,11.20
2018-11-13T04:04:40.499Z,11.20
2018-11-13T04:07:08.809Z,11.20
2018-11-13T04:09:37.106Z,11.20
2018-11-13T04:12:05.528Z,11.20
2018-11-13T04:14:33.818Z,11.10
2018-11-13T04:17:02.089Z,11.10
2018-11-13T04:19:30.360Z,11.10
2018-11-13T04:22:03.658Z,11.10
2018-11-13T04:24:32.237Z,11.60
2018-11-13T04:27:01.169Z,11.10
2018-11-13T04:29:29.549Z,11.10
2018-11-13T04:31:58.155Z,11.00
2018-11-13T04:34:26.453Z,11.10
2018-11-13T04:36:54.744Z,11.00
2018-11-13T04:39:23.047Z,11.00
2018-11-13T04:41:51.320Z,11.00
2018-11-13T04:44:19.623Z,11.00
2018-11-13T04:46:47.918Z,11.00
2018-11-13T04:49:16.211Z,11.00
2018-11-13T04:51:44.634Z,11.00
2018-11-13T04:54:12.787Z,11.00
2018-11-13T04:56:41.059Z,11.00
2018-11-13T04:59:09.339Z,10.90
2018-11-13T05:01:37.638Z,10.90
2018-11-13T05:04:06.245Z,10.90
2018-11-13T05:06:34.536Z,10.80
2018-11-13T05:09:02.871Z,10.90
2018-11-13T05:11:31.160Z,10.80
2018-11-13T05:13:59.453Z,10.80
2018-11-13T05:16:27.727Z,10.70
2018-11-13T05:18:56.030Z,10.70
2018-11-13T05:21:24.325Z,10.70
2018-11-13T05:23:52.609Z,10.60
2018-11-13T05:26:20.885Z,10.60
2018-11-13T05:28:49.214Z,10.60
2018-11-13T05:31:17.509Z,10.50
2018-11-13T05:33:45.809Z,10.50
2018-11-13T05:36:14.113Z,10.50
2018-11-13T05:38:42.415Z,10.50
2018-11-13T05:41:10.677Z,10.50
2018-11-13T05:43:38.969Z,10.50
2018-11-13T05:46:07.284Z,10.50
2018-11-13T05:48:35.637Z,10.50
2018-11-13T05:51:03.994Z,10.40
2018-11-13T05:53:32.294Z,10.40
2018-11-13T05:56:00.567Z,10.40
2018-11-13T05:58:28.887Z,10.40
2018-11-13T06:00:57.183Z,10.30
2018-11-13T06:03:25.496Z,10.30
2018-11-13T06:05:53.789Z,10.30
2018-11-13T06:08:22.082Z,10.30
2018-11-13T06:10:50.337Z,10.30
2018-11-13T06:13:18.659Z,10.20
2018-11-13T06:15:46.951Z,10.20
2018-11-13T06:18:15.307Z,10.20
2018-11-13T06:20:43.531Z,10.20
2018-11-13T06:23:11.922Z,10.20
2018-11-13T06:25:40.261Z,10.20
2018-11-13T06:28:08.560Z,10.20
2018-11-13T06:30:36.858Z,10.20
2018-11-13T06:33:05.623Z,10.20
2018-11-13T06:35:33.930Z,10.20
2018-11-13T06:38:02.249Z,10.20
2018-11-13T06:40:30.574Z,10.20
2018-11-13T06:42:58.893Z,10.20
2018-11-13T06:45:27.195Z,10.20
2018-11-13T06:47:55.495Z,10.20
2018-11-13T06:50:23.829Z,10.20
2018-11-13T06:52:52.192Z,10.20
2018-11-13T06:55:31.350Z,10.20
2018-11-13T06:57:59.701Z,10.20
2018-11-13T07:00:28.024Z,10.20
2018-11-13T07:02:56.337Z,10.20
2018-11-13T07:05:24.664Z,10.20
2018-11-13T07:07:52.967Z,10.30
2018-11-13T07:10:22.529Z,10.20
2018-11-13T07:12:51.535Z,10.20
2018-11-13T07:15:21.965Z,10.30
2018-11-13T07:17:51.577Z,10.30
2018-11-13T07:20:21.216Z,10.30
2018-11-13T07:22:49.512Z,10.30
2018-11-13T07:25:17.874Z,10.30
2018-11-13T07:27:46.405Z,10.30
2018-11-13T07:30:15.783Z,10.30
2018-11-13T07:32:44.095Z,10.30
2018-11-13T07:35:13.643Z,10.30
2018-11-13T07:37:45.431Z,10.30
2018-11-13T07:40:13.724Z,10.30
2018-11-13T07:42:42.059Z,10.40
2018-11-13T07:45:12.303Z,10.40
2018-11-13T07:47:41.418Z,10.40
2018-11-13T07:50:10.751Z,10.40
2018-11-13T07:52:39.117Z,10.40
2018-11-13T07:55:08.105Z,10.40
2018-11-13T07:57:36.433Z,10.40
2018-11-13T08:00:07.921Z,10.40
2018-11-13T08:02:36.246Z,10.40
2018-11-13T08:05:05.602Z,10.40
2018-11-13T08:07:33.965Z,10.40
2018-11-13T08:10:02.319Z,10.50
2018-11-13T08:12:30.678Z,10.50
2018-11-13T08:14:59.002Z,10.50
2018-11-13T08:17:27.335Z,10.50
2018-11-13T08:19:55.739Z,10.50
2018-11-13T08:22:24.191Z,10.50
2018-11-13T08:24:54.355Z,10.50
2018-11-13T08:27:23.095Z,10.50
2018-11-13T08:29:51.619Z,10.50
2018-11-13T08:32:19.973Z,10.50
2018-11-13T08:34:48.346Z,10.50
2018-11-13T08:37:16.727Z,10.50
2018-11-13T08:39:45.081Z,10.60
2018-11-13T08:42:13.393Z,10.60
2018-11-13T08:44:41.723Z,10.60
2018-11-13T08:47:10.064Z,10.60
2018-11-13T08:49:38.421Z,10.50
2018-11-13T08:52:07.241Z,10.50
2018-11-13T08:54:35.553Z,10.60
2018-11-13T08:57:03.887Z,10.50
2018-11-13T08:59:32.311Z,10.50
2018-11-13T09:02:00.723Z,10.50
2018-11-13T09:04:29.070Z,10.50
2018-11-13T09:06:57.411Z,10.50
2018-11-13T09:09:25.790Z,10.60
2018-11-13T09:11:54.204Z,10.50
2018-11-13T09:14:22.436Z,10.60
2018-11-13T09:16:50.740Z,10.50
2018-11-13T09:19:19.443Z,10.60
2018-11-13T09:21:47.741Z,10.60
2018-11-13T09:24:16.218Z,10.70
2018-11-13T09:26:44.621Z,10.80
2018-11-13T09:29:12.968Z,10.90
2018-11-13T09:31:41.384Z,10.90
2018-11-13T09:34:09.646Z,11.00
2018-11-13T09:36:38.003Z,11.00
2018-11-13T09:39:09.188Z,11.00
2018-11-13T09:41:37.678Z,11.10
2018-11-13T09:44:06.026Z,11.10
2018-11-13T09:46:34.391Z,11.10
2018-11-13T09:49:02.802Z,11.10
2018-11-13T09:51:31.157Z,11.40
2018-11-13T09:53:59.439Z,11.50
2018-11-13T09:56:27.923Z,11.70
2018-11-13T09:58:56.272Z,11.80
2018-11-13T10:01:24.693Z,11.70
2018-11-13T10:03:53.268Z,11.60
2018-11-13T10:06:21.270Z,11.50
2018-11-13T10:08:49.670Z,11.40
2018-11-13T10:11:17.996Z,11.30
2018-11-13T10:13:47.047Z,11.30
2018-11-13T10:16:15.380Z,11.40
2018-11-13T10:18:43.685Z,11.40
2018-11-13T10:21:12.055Z,11.50
2018-11-13T10:23:40.370Z,11.50
2018-11-13T10:26:08.798Z,11.50
2018-11-13T10:28:37.081Z,11.60
2018-11-13T10:31:05.655Z,11.60
2018-11-13T10:33:33.932Z,11.70
2018-11-13T10:36:02.234Z,11.80
2018-11-13T10:38:30.512Z,11.90
2018-11-13T10:40:58.884Z,12.10
2018-11-13T10:43:27.113Z,12.10
2018-11-13T10:45:55.426Z,12.00
2018-11-13T10:48:23.751Z,12.00
2018-11-13T10:50:52.054Z,12.10
2018-11-13T10:53:20.364Z,12.10
2018-11-13T10:55:48.665Z,12.00
2018-11-13T10:58:16.968Z,11.90
2018-11-13T11:00:50.651Z,11.80
2018-11-13T11:03:24.351Z,11.70
2018-11-13T11:05:52.644Z,11.70
2018-11-13T11:08:21.019Z,11.60
2018-11-13T11:10:49.298Z,11.50
2018-11-13T11:13:17.774Z,11.50
2018-11-13T11:15:45.956Z,11.40
2018-11-13T11:18:14.287Z,11.40
2018-11-13T11:20:42.606Z,11.30
2018-11-13T11:23:10.974Z,11.40
2018-11-13T11:25:39.260Z,11.30
2018-11-13T11:28:07.627Z,11.30
2018-11-13T11:30:35.917Z,11.10
2018-11-13T11:33:04.275Z,11.00
2018-11-13T11:35:32.585Z,11.00
2018-11-13T11:38:00.909Z,11.00
2018-11-13T11:40:29.234Z,11.10
2018-11-13T11:42:57.582Z,11.30
2018-11-13T11:45:25.881Z,11.50
2018-11-13T11:47:54.167Z,11.60
2018-11-13T11:50:22.451Z,11.70
2018-11-13T11:52:50.748Z,11.90
2018-11-13T11:55:19.135Z,12.00
2018-11-13T11:57:47.435Z,12.30
2018-11-13T12:00:17.951Z,12.60
2018-11-13T12:02:46.252Z,12.80
2018-11-13T12:05:15.499Z,12.90
2018-11-13T12:07:43.802Z,12.90
2018-11-13T12:10:13.369Z,12.90
2018-11-13T12:12:41.768Z,13.10
2018-11-13T12:15:12.327Z,13.20
2018-11-13T12:17:40.808Z,13.20
2018-11-13T12:20:10.520Z,13.10
2018-11-13T12:22:38.837Z,12.90
2018-11-13T12:25:09.014Z,12.60
2018-11-13T12:27:37.342Z,12.30
2018-11-13T12:30:08.488Z,12.20
2018-11-13T12:32:36.783Z,12.20
2018-11-13T12:35:05.516Z,12.10
2018-11-13T12:37:33.781Z,12.10
2018-11-13T12:40:02.090Z,12.10
2018-11-13T12:42:30.518Z,12.20
2018-11-13T12:44:58.817Z,12.30
2018-11-13T12:47:27.102Z,12.40
2018-11-13T12:49:55.657Z,12.40
2018-11-13T12:52:24.273Z,12.50
2018-11-13T12:54:52.283Z,12.50
2018-11-13T12:57:20.622Z,12.50
2018-11-13T12:59:48.939Z,12.40
2018-11-13T13:02:17.335Z,12.30
2018-11-13T13:04:45.593Z,12.30
2018-11-13T13:07:13.873Z,12.10
2018-11-13T13:09:42.160Z,11.90
2018-11-13T13:12:10.600Z,11.70
2018-11-13T13:14:38.912Z,11.60
2018-11-13T13:17:08.036Z,11.60
2018-11-13T13:19:36.414Z,11.50
2018-11-13T13:22:04.817Z,11.60
2018-11-13T13:24:33.096Z,11.60
2018-11-13T13:27:01.586Z,11.60
2018-11-13T13:29:29.969Z,11.60
2018-11-13T13:31:58.310Z,11.50
2018-11-13T13:34:26.590Z,11.40
2018-11-13T13:36:54.885Z,11.30
2018-11-13T13:39:23.196Z,11.30
2018-11-13T13:41:51.544Z,11.40
2018-11-13T13:44:19.893Z,11.40
2018-11-13T13:46:48.286Z,11.40
2018-11-13T13:49:16.531Z,11.40
2018-11-13T13:51:44.816Z,11.30
2018-11-13T13:54:13.289Z,11.30
2018-11-13T13:56:41.500Z,11.30
2018-11-13T13:59:09.810Z,11.40
2018-11-13T14:01:38.133Z,11.50
2018-11-13T14:04:06.451Z,11.60
2018-11-13T14:06:34.792Z,11.60
2018-11-13T14:09:03.647Z,11.60
2018-11-13T14:11:31.972Z,11.50
2018-11-13T14:14:00.562Z,11.40
2018-11-13T14:16:28.895Z,11.30
2018-11-13T14:18:57.197Z,11.20
2018-11-13T14:21:25.484Z,11.20
2018-11-13T14:23:53.806Z,11.10
2018-11-13T14:26:22.092Z,11.10
2018-11-13T14:28:50.415Z,11.00
2018-11-13T14:31:18.702Z,10.90
2018-11-13T14:33:48.210Z,10.90
2018-11-13T14:36:16.548Z,10.80
2018-11-13T14:38:44.859Z,10.90
2018-11-13T14:41:13.848Z,11.00
2018-11-13T14:43:42.140Z,11.10
2018-11-13T14:46:10.445Z,11.20
2018-11-13T14:48:38.734Z,11.20
2018-11-13T14:51:07.073Z,11.20
2018-11-13T14:53:35.384Z,11.20
2018-11-13T14:56:03.720Z,11.20
2018-11-13T14:58:32.036Z,11.30
2018-11-13T15:01:00.378Z,11.30
2018-11-13T15:03:28.680Z,11.30
2018-11-13T15:05:56.985Z,11.30
2018-11-13T15:08:25.317Z,11.30
2018-11-13T15:10:54.513Z,11.30
2018-11-13T15:13:24.209Z,11.30
2018-11-13T15:15:52.553Z,11.10
2018-11-13T15:18:20.893Z,11.10
2018-11-13T15:20:50.073Z,10.90
2018-11-13T15:23:18.422Z,10.80
2018-11-13T15:25:47.377Z,10.80
2018-11-13T15:28:15.690Z,10.60
2018-11-13T15:30:45.602Z,10.50
2018-11-13T15:33:18.269Z,10.50
2018-11-13T15:35:46.831Z,10.40
2018-11-13T15:38:15.158Z,10.30
2018-11-13T15:40:43.457Z,10.30
2018-11-13T15:43:11.777Z,10.20
2018-11-13T15:45:40.128Z,10.10
2018-11-13T15:48:10.076Z,10.10
2018-11-13T15:50:39.689Z,10.00
2018-11-13T15:53:08.514Z,9.90
2018-11-13T15:55:36.822Z,9.80
2018-11-13T15:58:05.834Z,9.70
2018-11-13T16:00:35.489Z,9.60
2018-11-13T16:03:06.063Z,9.50
2018-11-13T16:05:41.853Z,9.60
2018-11-13T16:08:10.658Z,9.50
2018-11-13T16:10:38.988Z,9.40
2018-11-13T16:13:08.094Z,9.40
2018-11-13T16:15:36.400Z,9.40
2018-11-13T16:18:06.601Z,9.30
2018-11-13T16:20:34.948Z,9.20
2018-11-13T16:23:03.960Z,9.20
2018-11-13T16:25:32.298Z,9.10
2018-11-13T16:28:00.613Z,9.00
2018-11-13T16:30:30.677Z,8.90
2018-11-13T16:32:58.778Z,8.70
2018-11-13T16:35:28.054Z,8.70
2018-11-13T16:37:57.368Z,8.70
2018-11-13T16:40:28.363Z,8.60
2018-11-13T16:42:56.770Z,8.50
2018-11-13T16:45:25.862Z,8.50
2018-11-13T16:47:54.666Z,8.40
2018-11-13T16:50:24.236Z,8.40
2018-11-13T16:52:52.574Z,8.30
2018-11-13T16:55:26.222Z,8.30
2018-11-13T16:57:55.269Z,8.20
2018-11-13T17:00:24.075Z,8.20
2018-11-13T17:02:52.442Z,8.20
2018-11-13T17:05:21.562Z,8.20
2018-11-13T17:07:50.125Z,8.20
2018-11-13T17:10:20.531Z,8.10
2018-11-13T17:12:49.346Z,8.10
2018-11-13T17:15:27.297Z,8.10
2018-11-13T17:17:56.656Z,8.10
2018-11-13T17:20:25.049Z,8.00
2018-11-13T17:22:53.516Z,8.00
2018-11-13T17:25:25.309Z,8.00
2018-11-13T17:27:55.230Z,8.00
2018-11-13T17:30:29.390Z,8.00
2018-11-13T17:32:58.974Z,7.90
2018-11-13T17:35:27.914Z,7.90
2018-11-13T17:37:56.947Z,7.90
2018-11-13T17:40:26.659Z,7.90
2018-11-13T17:42:56.338Z,7.80
2018-11-13T17:45:28.112Z,7.80
2018-11-13T17:47:56.485Z,7.80
2018-11-13T17:50:29.192Z,7.70
2018-11-13T17:52:58.152Z,7.70
2018-11-13T17:55:26.525Z,7.70
2018-11-13T17:57:56.323Z,7.70
2018-11-13T18:00:29.214Z,7.70
2018-11-13T18:02:57.562Z,7.60
2018-11-13T18:05:26.541Z,7.60
2018-11-13T18:07:56.389Z,7.60
2018-11-13T18:10:25.177Z,7.60
2018-11-13T18:12:53.490Z,7.60
2018-11-13T18:15:23.119Z,7.60
2018-11-13T18:17:51.674Z,7.60
2018-11-13T18:20:21.490Z,7.60
2018-11-13T18:22:49.926Z,7.50
2018-11-13T18:25:18.325Z,7.50
2018-11-13T18:27:48.346Z,7.50
2018-11-13T18:30:20.039Z,7.40
2018-11-13T18:32:48.841Z,7.40
2018-11-13T18:35:18.680Z,7.40
2018-11-13T18:37:49.300Z,7.40
2018-11-13T18:40:18.686Z,7.40
2018-11-13T18:42:48.255Z,7.40
2018-11-13T18:45:22.016Z,7.40
2018-11-13T18:47:50.481Z,7.30
2018-11-13T18:50:20.460Z,7.30
2018-11-13T18:52:48.906Z,7.30
2018-11-13T18:55:17.640Z,7.30
2018-11-13T18:57:47.200Z,7.30
2018-11-13T19:00:18.370Z,7.20
2018-11-13T19:02:46.935Z,7.30
2018-11-13T19:05:15.978Z,7.20
2018-11-13T19:07:44.946Z,7.20
2018-11-13T19:10:24.942Z,7.20
2018-11-13T19:12:54.240Z,7.10
2018-11-13T19:15:22.597Z,7.10
2018-11-13T19:17:51.128Z,7.10
2018-11-13T19:20:20.648Z,7.10
2018-11-13T19:22:49.049Z,7.10
2018-11-13T19:25:19.863Z,7.00
2018-11-13T19:27:48.975Z,7.00
2018-11-13T19:30:18.373Z,6.90
2018-11-13T19:32:46.802Z,6.90
2018-11-13T19:35:15.709Z,6.90
2018-11-13T19:37:44.829Z,6.90
2018-11-13T19:40:16.112Z,6.90
2018-11-13T19:42:45.510Z,6.80
2018-11-13T19:45:14.911Z,6.80
2018-11-13T19:47:43.360Z,6.80
2018-11-13T19:50:25.171Z,6.80
2018-11-13T19:52:53.657Z,6.80
2018-11-13T19:55:23.004Z,6.80
2018-11-13T19:57:52.971Z,6.80
2018-11-13T20:00:22.917Z,6.70
2018-11-13T20:02:52.459Z,6.70
2018-11-13T20:05:21.334Z,6.70
2018-11-13T20:07:49.845Z,6.70
2018-11-13T20:10:20.695Z,6.70
2018-11-13T20:12:50.792Z,6.60
2018-11-13T20:15:19.866Z,6.60
2018-11-13T20:17:48.356Z,6.60
2018-11-13T20:20:19.800Z,6.60
2018-11-13T20:22:50.191Z,6.50
2018-11-13T20:25:20.657Z,6.50
2018-11-13T20:27:49.482Z,6.60
2018-11-13T20:30:21.498Z,6.60
2018-11-13T20:32:51.526Z,6.70
2018-11-13T20:35:22.714Z,6.70
2018-11-13T20:37:52.032Z,6.70
2018-11-13T20:40:23.181Z,6.60
2018-11-13T20:42:54.049Z,6.60
2018-11-13T20:45:24.099Z,6.50
2018-11-13T20:47:53.872Z,6.60
2018-11-13T20:50:25.078Z,6.60
2018-11-13T20:52:53.984Z,6.50
2018-11-13T20:55:22.458Z,6.50
2018-11-13T20:57:51.406Z,6.40
2018-11-13T21:00:22.623Z,6.40
2018-11-13T21:02:51.538Z,6.40
2018-11-13T21:05:20.172Z,6.40
2018-11-13T21:07:48.761Z,6.40
2018-11-13T21:10:18.950Z,6.30
2018-11-13T21:12:48.229Z,6.30
2018-11-13T21:15:18.974Z,6.30
2018-11-13T21:17:47.588Z,6.30
2018-11-13T21:20:17.286Z,6.20
2018-11-13T21:22:45.935Z,6.20
2018-11-13T21:25:15.915Z,6.20
2018-11-13T21:27:44.438Z,6.10
2018-11-13T21:30:17.100Z,6.10
2018-11-13T21:32:46.643Z,6.00
2018-11-13T21:35:15.475Z,6.00
2018-11-13T21:37:45.289Z,6.00
2018-11-13T21:42:44.109Z,6.00
2018-11-13T21:45:13.698Z,6.10
2018-11-13T21:47:42.507Z,6.10
2018-11-13T21:50:12.789Z,6.10
2018-11-13T21:52:42.012Z,6.10
2018-11-13T21:55:12.679Z,6.00
2018-11-13T21:57:41.133Z,6.00
2018-11-13T22:00:13.884Z,6.10
2018-11-13T22:02:45.235Z,6.10
2018-11-13T22:05:13.680Z,6.00
2018-11-13T22:07:42.109Z,6.00
2018-11-13T22:10:11.358Z,6.00
2018-11-13T22:12:40.548Z,6.00
2018-11-13T22:15:11.344Z,6.00
2018-11-13T22:17:40.062Z,6.00
2018-11-13T22:20:09.816Z,6.00
2018-11-13T22:22:38.502Z,5.90
2018-11-13T22:25:09.283Z,5.80
2018-11-13T22:27:38.035Z,5.80
2018-11-13T22:30:07.420Z,5.70
2018-11-13T22:32:35.817Z,5.70
2018-11-13T22:35:04.279Z,5.70
2018-11-13T22:37:32.660Z,5.70
2018-11-13T22:40:01.010Z,5.60
2018-11-13T22:42:29.355Z,5.60
2018-11-13T22:44:57.729Z,5.60
2018-11-13T22:47:26.102Z,5.60
2018-11-13T22:49:54.441Z,5.50
2018-11-13T22:52:22.761Z,5.60
2018-11-13T22:54:51.139Z,5.60
2018-11-13T22:57:19.453Z,5.60
2018-11-13T22:59:47.805Z,5.60
2018-11-13T23:02:17.575Z,5.50
2018-11-13T23:04:45.965Z,5.50
2018-11-13T23:07:14.273Z,5.40
2018-11-13T23:09:42.573Z,5.40
2018-11-13T23:12:10.946Z,5.40
2018-11-13T23:14:39.271Z,5.40
2018-11-13T23:17:07.617Z,5.40
2018-11-13T23:19:35.929Z,5.30
2018-11-13T23:22:04.722Z,5.30
2018-11-13T23:24:33.026Z,5.30
2018-11-13T23:27:01.336Z,5.30
2018-11-13T23:29:29.648Z,5.30
2018-11-13T23:31:57.951Z,5.30
2018-11-13T23:34:26.266Z,5.30
2018-11-13T23:36:54.556Z,5.20
2018-11-13T23:39:22.889Z,5.20
2018-11-13T23:41:51.179Z,5.20
2018-11-13T23:44:19.512Z,5.20
2018-11-13T23:46:47.806Z,5.20
2018-11-13T23:49:16.187Z,5.20
2018-11-13T23:51:44.485Z,5.10
2018-11-13T23:54:12.830Z,5.10
2018-11-13T23:56:41.117Z,5.10
2018-11-13T23:59:09.440Z,5.10
